createdAt,value
2017-07-31T00:02:24.725Z,67.70
2017-07-31T00:04:52.250Z,67.50
2017-07-31T00:07:19.754Z,68.00
2017-07-31T00:09:48.045Z,67.40
2017-07-31T00:12:15.554Z,67.00
2017-07-31T00:14:43.066Z,67.10
2017-07-31T00:17:11.334Z,66.90
2017-07-31T00:19:39.613Z,66.70
2017-07-31T00:22:07.114Z,66.60
2017-07-31T00:24:34.636Z,66.30
2017-07-31T00:27:02.903Z,66.10
2017-07-31T00:29:31.172Z,66.10
2017-07-31T00:31:58.695Z,66.70
2017-07-31T00:34:26.202Z,66.00
2017-07-31T00:36:54.488Z,65.70
2017-07-31T00:39:21.997Z,65.60
2017-07-31T00:41:49.520Z,65.60
2017-07-31T00:44:17.014Z,65.90
2017-07-31T00:46:44.532Z,65.80
2017-07-31T00:49:12.046Z,65.60
2017-07-31T00:51:39.554Z,65.60
2017-07-31T00:54:07.066Z,65.50
2017-07-31T00:56:34.560Z,65.30
2017-07-31T00:59:02.079Z,65.40
2017-07-31T01:01:29.584Z,65.30
2017-07-31T01:03:57.084Z,65.10
2017-07-31T01:06:24.594Z,65.40
2017-07-31T01:08:52.866Z,65.20
2017-07-31T01:11:21.142Z,65.10
2017-07-31T01:13:49.414Z,65.10
2017-07-31T01:16:17.706Z,65.20
2017-07-31T01:18:45.214Z,65.10
2017-07-31T01:21:12.726Z,65.30
2017-07-31T01:23:40.243Z,65.40
2017-07-31T01:26:07.743Z,65.30
2017-07-31T01:28:35.261Z,65.30
2017-07-31T01:31:02.766Z,65.50
2017-07-31T01:33:30.281Z,65.30
2017-07-31T01:35:57.839Z,65.20
2017-07-31T01:38:25.370Z,65.50
2017-07-31T01:40:52.865Z,65.40
2017-07-31T01:43:20.357Z,65.50
2017-07-31T01:45:47.878Z,65.50
2017-07-31T01:48:15.383Z,65.60
2017-07-31T01:50:42.895Z,65.50
2017-07-31T01:53:10.402Z,65.40
2017-07-31T01:55:37.923Z,65.40
2017-07-31T01:58:06.209Z,65.50
2017-07-31T02:00:33.709Z,65.40
2017-07-31T02:03:01.218Z,65.40
2017-07-31T02:05:28.719Z,65.50
2017-07-31T02:07:56.239Z,65.60
2017-07-31T02:10:24.505Z,65.50
2017-07-31T02:12:52.022Z,65.40
2017-07-31T02:15:19.554Z,65.40
2017-07-31T02:17:47.062Z,65.50
2017-07-31T02:20:14.578Z,65.30
2017-07-31T02:22:42.078Z,65.20
2017-07-31T02:25:09.595Z,65.50
2017-07-31T02:27:37.099Z,65.60
2017-07-31T02:30:04.618Z,65.30
2017-07-31T02:32:32.174Z,65.40
2017-07-31T02:34:59.670Z,65.50
2017-07-31T02:37:27.188Z,65.20
2017-07-31T02:39:54.707Z,65.30
2017-07-31T02:42:22.253Z,65.30
2017-07-31T02:44:49.754Z,65.50
2017-07-31T02:47:18.034Z,65.70
2017-07-31T02:49:45.534Z,65.60
2017-07-31T02:52:13.029Z,65.30
2017-07-31T02:54:40.544Z,65.30
2017-07-31T02:57:08.038Z,65.30
2017-07-31T02:59:35.546Z,65.30
2017-07-31T03:02:03.044Z,65.20
2017-07-31T03:04:30.560Z,65.00
2017-07-31T03:06:58.071Z,65.20
2017-07-31T03:09:25.579Z,65.30
2017-07-31T03:11:53.108Z,65.40
2017-07-31T03:14:20.606Z,65.10
2017-07-31T03:16:48.118Z,65.50
2017-07-31T03:19:15.614Z,65.40
2017-07-31T03:21:43.138Z,65.30
2017-07-31T03:24:10.641Z,65.50
2017-07-31T03:26:38.145Z,65.60
2017-07-31T03:29:05.659Z,65.50
2017-07-31T03:31:33.158Z,65.60
2017-07-31T03:34:00.710Z,65.70
2017-07-31T03:36:28.214Z,65.80
2017-07-31T03:38:55.734Z,65.80
2017-07-31T03:41:23.234Z,65.40
2017-07-31T03:43:50.746Z,65.50
2017-07-31T03:46:18.253Z,65.50
2017-07-31T03:48:45.770Z,65.50
2017-07-31T03:51:13.285Z,65.50
2017-07-31T03:53:40.782Z,65.20
2017-07-31T03:56:08.298Z,66.10
2017-07-31T03:58:35.802Z,65.60
2017-07-31T04:01:03.322Z,65.40
2017-07-31T04:03:30.826Z,65.30
2017-07-31T04:05:58.338Z,65.30
2017-07-31T04:08:25.843Z,65.50
2017-07-31T04:10:53.368Z,65.60
2017-07-31T04:13:20.891Z,65.50
2017-07-31T04:15:49.158Z,65.70
2017-07-31T04:18:17.467Z,65.80
2017-07-31T04:20:44.971Z,65.50
2017-07-31T04:23:12.478Z,65.70
2017-07-31T04:25:39.992Z,65.60
2017-07-31T04:28:07.513Z,65.40
2017-07-31T04:30:35.175Z,65.70
2017-07-31T04:33:02.682Z,65.90
2017-07-31T04:35:30.185Z,65.80
2017-07-31T04:37:57.690Z,66.00
2017-07-31T04:40:25.197Z,65.80
2017-07-31T04:42:52.710Z,65.90
2017-07-31T04:45:20.232Z,65.80
2017-07-31T04:47:47.821Z,65.90
2017-07-31T04:50:15.340Z,65.90
2017-07-31T04:52:42.849Z,65.90
2017-07-31T04:55:10.363Z,66.00
2017-07-31T04:57:37.878Z,66.10
2017-07-31T05:00:05.378Z,66.30
2017-07-31T05:02:32.890Z,66.30
2017-07-31T05:05:00.393Z,66.40
2017-07-31T05:07:27.910Z,66.30
2017-07-31T05:09:55.416Z,66.30
2017-07-31T05:12:22.946Z,66.60
2017-07-31T05:14:51.217Z,68.30
2017-07-31T05:17:18.736Z,68.20
2017-07-31T05:19:46.249Z,69.70
2017-07-31T05:22:13.753Z,70.70
2017-07-31T05:24:41.262Z,71.20
2017-07-31T05:27:09.535Z,71.80
2017-07-31T05:29:37.820Z,71.80
2017-07-31T05:32:05.326Z,71.80
2017-07-31T05:34:32.843Z,71.30
2017-07-31T05:37:00.350Z,72.10
2017-07-31T05:39:27.870Z,72.30
2017-07-31T05:41:55.372Z,72.10
2017-07-31T05:44:22.883Z,72.30
2017-07-31T05:46:50.417Z,70.90
2017-07-31T05:49:17.918Z,71.90
2017-07-31T05:51:45.941Z,72.20
2017-07-31T05:54:13.447Z,72.50
2017-07-31T05:56:40.961Z,72.50
2017-07-31T05:59:08.475Z,71.60
2017-07-31T06:01:35.989Z,69.60
2017-07-31T06:04:03.487Z,70.20
2017-07-31T06:06:30.982Z,70.10
2017-07-31T06:08:58.496Z,69.70
2017-07-31T06:11:25.995Z,69.50
2017-07-31T06:13:53.514Z,69.40
2017-07-31T06:16:21.013Z,69.20
2017-07-31T06:18:48.538Z,69.00
2017-07-31T06:21:16.060Z,68.80
2017-07-31T06:23:44.360Z,67.10
2017-07-31T06:26:11.854Z,67.10
2017-07-31T06:28:39.387Z,67.60
2017-07-31T06:31:06.885Z,66.90
2017-07-31T06:33:34.382Z,67.80
2017-07-31T06:36:01.920Z,67.80
2017-07-31T06:38:29.427Z,67.60
2017-07-31T06:40:56.942Z,66.80
2017-07-31T06:43:24.442Z,67.60
2017-07-31T06:45:51.963Z,67.50
2017-07-31T06:48:19.463Z,67.30
2017-07-31T06:50:46.984Z,67.10
2017-07-31T06:53:15.249Z,65.20
2017-07-31T06:55:42.770Z,65.10
2017-07-31T06:58:10.281Z,67.10
2017-07-31T07:00:37.794Z,67.50
2017-07-31T07:03:05.303Z,66.90
2017-07-31T07:05:32.806Z,66.60
2017-07-31T07:08:00.327Z,64.50
2017-07-31T07:10:28.602Z,65.60
2017-07-31T07:12:56.873Z,64.90
2017-07-31T07:15:25.146Z,64.20
2017-07-31T07:17:53.459Z,63.90
2017-07-31T07:20:20.961Z,63.80
2017-07-31T07:23:03.351Z,64.10
2017-07-31T07:25:30.858Z,61.70
2017-07-31T07:27:59.135Z,63.80
2017-07-31T07:30:27.417Z,63.70
2017-07-31T07:32:55.691Z,61.50
2017-07-31T07:35:23.218Z,61.40
2017-07-31T07:37:50.719Z,60.30
2017-07-31T07:40:18.235Z,59.20
2017-07-31T07:42:45.738Z,60.30
2017-07-31T07:45:13.255Z,58.80
2017-07-31T07:47:40.754Z,58.70
2017-07-31T07:50:08.282Z,54.90
2017-07-31T07:52:35.798Z,55.90
2017-07-31T07:55:03.306Z,56.50
2017-07-31T07:57:30.835Z,54.60
2017-07-31T07:59:58.350Z,54.20
2017-07-31T08:02:25.869Z,57.00
2017-07-31T08:04:53.367Z,56.20
2017-07-31T08:07:20.883Z,54.50
2017-07-31T08:09:48.390Z,57.50
2017-07-31T08:12:15.889Z,58.60
2017-07-31T08:14:43.406Z,55.60
2017-07-31T08:17:10.907Z,54.70
2017-07-31T08:19:38.418Z,56.20
2017-07-31T08:22:05.925Z,54.80
2017-07-31T08:24:33.463Z,53.60
2017-07-31T08:27:00.977Z,53.50
2017-07-31T08:29:29.263Z,52.10
2017-07-31T08:31:57.543Z,55.10
2017-07-31T08:34:25.811Z,53.10
2017-07-31T08:36:54.086Z,54.70
2017-07-31T08:39:22.372Z,55.20
2017-07-31T08:41:50.680Z,54.90
2017-07-31T08:44:18.183Z,54.90
2017-07-31T08:46:45.711Z,53.80
2017-07-31T08:49:13.213Z,54.60
2017-07-31T08:51:40.734Z,54.60
2017-07-31T08:54:08.239Z,54.60
2017-07-31T08:56:35.749Z,54.70
2017-07-31T08:59:03.256Z,52.70
2017-07-31T09:01:31.535Z,52.50
2017-07-31T09:03:59.810Z,52.30
2017-07-31T09:06:28.073Z,52.50
2017-07-31T09:08:55.582Z,52.00
2017-07-31T09:11:23.091Z,53.70
2017-07-31T09:13:50.618Z,53.80
2017-07-31T09:16:18.123Z,53.20
2017-07-31T09:18:46.420Z,51.00
2017-07-31T09:21:13.935Z,51.00
2017-07-31T09:23:41.448Z,52.00
2017-07-31T09:26:08.962Z,51.70
2017-07-31T09:28:36.451Z,50.00
2017-07-31T09:31:03.966Z,50.90
2017-07-31T09:33:31.479Z,50.70
2017-07-31T09:35:58.990Z,51.70
2017-07-31T09:38:26.487Z,51.90
2017-07-31T09:40:53.997Z,49.30
2017-07-31T09:43:21.494Z,51.00
2017-07-31T09:45:49.754Z,50.00
2017-07-31T09:48:17.271Z,49.90
2017-07-31T09:50:44.772Z,48.10
2017-07-31T09:53:12.288Z,49.30
2017-07-31T09:55:40.085Z,48.00
2017-07-31T09:58:07.632Z,47.90
2017-07-31T10:00:35.132Z,47.50
2017-07-31T10:03:03.409Z,48.80
2017-07-31T10:05:31.674Z,46.00
2017-07-31T10:07:59.209Z,46.00
2017-07-31T10:10:26.727Z,44.90
2017-07-31T10:12:54.227Z,46.60
2017-07-31T10:15:21.742Z,47.00
2017-07-31T10:17:49.270Z,47.50
2017-07-31T10:20:17.554Z,46.40
2017-07-31T10:22:45.050Z,46.40
2017-07-31T10:25:12.588Z,45.00
2017-07-31T10:27:40.112Z,43.10
2017-07-31T10:30:07.614Z,45.30
2017-07-31T10:32:35.169Z,44.30
2017-07-31T10:35:02.670Z,45.70
2017-07-31T10:37:30.322Z,44.80
2017-07-31T10:39:57.840Z,45.50
2017-07-31T10:42:25.357Z,43.70
2017-07-31T10:44:52.846Z,42.80
2017-07-31T10:47:21.137Z,43.60
2017-07-31T10:49:48.638Z,43.60
2017-07-31T10:52:16.198Z,45.10
2017-07-31T10:54:43.722Z,44.70
2017-07-31T10:57:11.228Z,46.00
2017-07-31T10:59:38.744Z,46.50
2017-07-31T11:02:06.265Z,46.20
2017-07-31T11:04:33.771Z,45.20
2017-07-31T11:07:01.271Z,44.90
2017-07-31T11:09:28.943Z,46.10
2017-07-31T11:11:56.445Z,42.40
2017-07-31T11:14:23.954Z,43.40
2017-07-31T11:16:51.481Z,44.60
2017-07-31T11:19:18.987Z,45.80
2017-07-31T11:21:46.498Z,45.40
2017-07-31T11:24:14.006Z,46.20
2017-07-31T11:26:42.297Z,43.90
2017-07-31T11:29:09.807Z,43.90
2017-07-31T11:31:37.334Z,45.90
2017-07-31T11:34:04.839Z,45.90
2017-07-31T11:36:32.353Z,46.10
2017-07-31T11:38:59.882Z,45.50
2017-07-31T11:41:28.158Z,45.50
2017-07-31T11:43:56.441Z,45.20
2017-07-31T11:46:24.709Z,45.30
2017-07-31T11:48:53.018Z,45.60
2017-07-31T11:51:20.531Z,45.50
2017-07-31T11:53:48.059Z,45.70
2017-07-31T11:56:15.575Z,45.70
2017-07-31T11:58:43.085Z,45.80
2017-07-31T12:01:10.718Z,45.30
2017-07-31T12:03:38.246Z,44.60
2017-07-31T12:06:05.772Z,45.10
2017-07-31T12:08:33.291Z,43.80
2017-07-31T12:11:00.825Z,44.60
2017-07-31T12:13:28.332Z,43.80
2017-07-31T12:15:55.862Z,43.90
2017-07-31T12:18:23.371Z,43.30
2017-07-31T12:20:50.881Z,42.80
2017-07-31T12:23:18.420Z,43.00
2017-07-31T12:25:46.698Z,43.20
2017-07-31T12:28:14.220Z,43.10
2017-07-31T12:30:41.738Z,43.30
2017-07-31T12:33:09.284Z,42.00
2017-07-31T12:35:36.803Z,42.40
2017-07-31T12:38:04.315Z,41.10
2017-07-31T12:40:31.823Z,40.50
2017-07-31T12:42:59.330Z,41.10
2017-07-31T12:45:26.863Z,40.70
2017-07-31T12:47:55.134Z,40.80
2017-07-31T12:50:22.678Z,40.70
2017-07-31T12:52:50.187Z,40.30
2017-07-31T12:55:17.718Z,40.80
2017-07-31T12:57:45.989Z,39.80
2017-07-31T13:00:13.511Z,39.10
2017-07-31T13:02:41.013Z,39.10
2017-07-31T13:05:09.281Z,39.60
2017-07-31T13:07:36.810Z,39.60
2017-07-31T13:10:04.323Z,39.40
2017-07-31T13:12:31.863Z,39.70
2017-07-31T13:14:59.382Z,40.30
2017-07-31T13:17:26.915Z,40.20
2017-07-31T13:19:54.443Z,39.60
2017-07-31T13:22:22.754Z,39.40
2017-07-31T13:24:50.266Z,39.30
2017-07-31T13:27:17.773Z,36.70
2017-07-31T13:29:45.293Z,38.30
2017-07-31T13:32:12.790Z,38.30
2017-07-31T13:34:40.310Z,36.60
2017-07-31T13:37:07.808Z,36.50
2017-07-31T13:39:35.330Z,38.20
2017-07-31T13:42:02.835Z,35.70
2017-07-31T13:44:30.383Z,37.30
2017-07-31T13:46:57.900Z,38.20
2017-07-31T13:49:25.399Z,37.70
2017-07-31T13:51:52.938Z,37.60
2017-07-31T13:54:21.202Z,37.80
2017-07-31T13:56:48.722Z,37.80
2017-07-31T13:59:16.232Z,38.80
2017-07-31T14:01:44.518Z,37.00
2017-07-31T14:04:12.792Z,34.20
2017-07-31T14:06:41.143Z,34.70
2017-07-31T14:09:08.643Z,36.60
2017-07-31T14:11:36.162Z,36.90
2017-07-31T14:14:03.677Z,35.60
2017-07-31T14:16:31.186Z,33.90
2017-07-31T14:18:59.479Z,35.70
2017-07-31T14:21:26.975Z,35.30
2017-07-31T14:23:54.490Z,35.30
2017-07-31T14:26:22.755Z,33.30
2017-07-31T14:28:50.274Z,33.20
2017-07-31T14:31:17.775Z,33.40
2017-07-31T14:33:45.288Z,34.60
2017-07-31T14:36:12.830Z,33.80
2017-07-31T14:38:40.339Z,33.60
2017-07-31T14:41:07.858Z,35.20
2017-07-31T14:43:35.356Z,34.80
2017-07-31T14:46:02.880Z,34.40
2017-07-31T14:48:30.388Z,34.70
2017-07-31T14:50:57.916Z,33.40
2017-07-31T14:53:25.421Z,34.40
2017-07-31T14:55:53.690Z,34.80
2017-07-31T14:58:21.201Z,34.70
2017-07-31T15:00:48.694Z,34.30
2017-07-31T15:03:16.220Z,34.30
2017-07-31T15:05:43.730Z,34.20
2017-07-31T15:08:12.006Z,34.20
2017-07-31T15:10:40.266Z,34.50
2017-07-31T15:13:07.791Z,33.70
2017-07-31T15:15:35.308Z,34.90
2017-07-31T15:18:02.856Z,33.20
2017-07-31T15:20:30.361Z,34.70
2017-07-31T15:22:57.866Z,35.50
2017-07-31T15:25:26.022Z,35.90
2017-07-31T15:27:53.531Z,37.20
2017-07-31T15:30:21.058Z,37.50
2017-07-31T15:32:48.565Z,37.40
2017-07-31T15:35:16.085Z,37.90
2017-07-31T15:37:43.586Z,38.10
2017-07-31T15:40:11.162Z,38.70
2017-07-31T15:42:38.900Z,39.10
2017-07-31T15:45:07.187Z,39.40
2017-07-31T15:47:34.730Z,39.40
2017-07-31T15:50:02.421Z,39.20
2017-07-31T15:52:29.938Z,39.40
2017-07-31T15:54:57.689Z,39.20
2017-07-31T15:57:25.215Z,39.30
2017-07-31T15:59:52.719Z,39.50
2017-07-31T16:02:21.024Z,39.30
2017-07-31T16:04:48.539Z,39.30
2017-07-31T16:07:16.050Z,39.10
2017-07-31T16:09:44.450Z,39.20
2017-07-31T16:12:11.966Z,39.60
2017-07-31T16:14:39.486Z,40.10
2017-07-31T16:17:06.987Z,40.30
2017-07-31T16:19:34.510Z,40.20
2017-07-31T16:22:02.025Z,40.50
2017-07-31T16:24:29.565Z,40.60
2017-07-31T16:26:57.296Z,40.60
2017-07-31T16:29:24.798Z,40.70
2017-07-31T16:31:52.318Z,40.60
2017-07-31T16:34:19.825Z,41.20
2017-07-31T16:36:47.354Z,41.50
2017-07-31T16:39:25.800Z,41.30
2017-07-31T16:42:08.211Z,41.50
2017-07-31T16:44:47.562Z,41.70
2017-07-31T16:47:27.680Z,41.70
2017-07-31T16:49:55.186Z,41.70
2017-07-31T16:52:22.736Z,41.50
2017-07-31T16:54:50.242Z,40.80
2017-07-31T16:57:17.778Z,40.80
2017-07-31T16:59:46.066Z,40.20
2017-07-31T17:02:14.360Z,40.50
2017-07-31T17:04:41.871Z,40.50
2017-07-31T17:07:09.393Z,40.70
2017-07-31T17:09:36.911Z,41.40
2017-07-31T17:12:04.430Z,41.70
2017-07-31T17:14:32.012Z,41.50
2017-07-31T17:16:59.534Z,42.10
2017-07-31T17:19:27.072Z,41.30
2017-07-31T17:21:54.581Z,41.20
2017-07-31T17:24:22.092Z,41.40
2017-07-31T17:26:49.608Z,41.50
2017-07-31T17:29:17.159Z,41.20
2017-07-31T17:31:44.707Z,41.00
2017-07-31T17:34:12.216Z,41.10
2017-07-31T17:36:40.510Z,41.00
2017-07-31T17:39:08.018Z,40.90
2017-07-31T17:41:35.566Z,41.00
2017-07-31T17:44:03.069Z,41.10
2017-07-31T17:46:31.373Z,40.90
2017-07-31T17:48:58.891Z,40.90
2017-07-31T17:51:26.414Z,41.00
2017-07-31T17:53:53.950Z,40.90
2017-07-31T17:56:21.467Z,40.90
2017-07-31T17:58:49.010Z,40.90
2017-07-31T18:01:16.519Z,41.00
2017-07-31T18:03:44.061Z,41.10
2017-07-31T18:06:12.330Z,41.40
2017-07-31T18:08:39.853Z,40.70
2017-07-31T18:11:07.383Z,40.70
2017-07-31T18:13:34.909Z,40.80
2017-07-31T18:16:02.429Z,40.80
2017-07-31T18:18:29.956Z,40.60
2017-07-31T18:20:57.503Z,40.70
2017-07-31T18:23:25.013Z,40.80
2017-07-31T18:25:52.567Z,41.00
2017-07-31T18:28:20.075Z,40.90
2017-07-31T18:30:48.391Z,40.80
2017-07-31T18:33:15.923Z,40.90
2017-07-31T18:35:44.217Z,41.40
2017-07-31T18:38:11.743Z,41.40
2017-07-31T18:40:39.250Z,42.00
2017-07-31T18:43:06.807Z,42.20
2017-07-31T18:45:34.311Z,42.50
2017-07-31T18:48:01.863Z,42.60
2017-07-31T18:50:29.383Z,42.50
2017-07-31T18:52:56.931Z,42.60
2017-07-31T18:55:24.439Z,43.30
2017-07-31T18:57:51.968Z,43.80
2017-07-31T19:00:19.490Z,43.60
2017-07-31T19:02:47.762Z,44.10
2017-07-31T19:05:16.952Z,44.90
2017-07-31T19:07:44.477Z,44.20
2017-07-31T19:10:12.045Z,44.70
2017-07-31T19:12:39.589Z,45.00
2017-07-31T19:15:07.121Z,45.80
2017-07-31T19:17:34.651Z,45.40
2017-07-31T19:20:02.162Z,45.50
2017-07-31T19:22:29.721Z,45.80
2017-07-31T19:24:57.243Z,45.70
2017-07-31T19:27:25.555Z,46.10
2017-07-31T19:29:53.059Z,46.00
2017-07-31T19:32:20.575Z,46.60
2017-07-31T19:34:48.112Z,46.50
2017-07-31T19:37:15.684Z,46.90
2017-07-31T19:39:43.195Z,47.00
2017-07-31T19:42:10.695Z,47.20
2017-07-31T19:44:38.219Z,47.70
2017-07-31T19:47:05.723Z,48.00
2017-07-31T19:49:33.279Z,48.80
2017-07-31T19:52:00.826Z,47.90
2017-07-31T19:54:29.075Z,48.10
2017-07-31T19:56:56.570Z,48.30
2017-07-31T19:59:24.480Z,48.30
2017-07-31T20:01:51.990Z,48.10
2017-07-31T20:04:20.266Z,48.60
2017-07-31T20:06:47.798Z,48.60
2017-07-31T20:09:15.299Z,48.90
2017-07-31T20:11:42.968Z,49.10
2017-07-31T20:14:10.478Z,49.10
2017-07-31T20:16:38.071Z,49.40
2017-07-31T20:19:05.566Z,49.60
2017-07-31T20:21:33.101Z,49.70
2017-07-31T20:24:00.607Z,49.60
2017-07-31T20:26:28.102Z,49.80
2017-07-31T20:28:55.626Z,49.70
2017-07-31T20:31:23.129Z,49.80
2017-07-31T20:33:50.660Z,49.50
2017-07-31T20:36:18.174Z,50.20
2017-07-31T20:38:45.702Z,50.10
2017-07-31T20:41:13.201Z,50.10
2017-07-31T20:43:40.739Z,50.00
2017-07-31T20:46:08.243Z,50.50
2017-07-31T20:48:35.742Z,50.50
2017-07-31T20:51:03.267Z,50.50
2017-07-31T20:53:30.766Z,50.40
2017-07-31T20:55:58.298Z,50.40
2017-07-31T20:58:25.794Z,50.60
2017-07-31T21:00:53.442Z,51.30
2017-07-31T21:03:20.946Z,51.00
2017-07-31T21:05:48.449Z,51.30
2017-07-31T21:08:15.966Z,51.30
2017-07-31T21:10:43.454Z,51.30
2017-07-31T21:13:10.972Z,51.50
2017-07-31T21:15:38.480Z,51.80
2017-07-31T21:18:06.764Z,52.20
2017-07-31T21:20:34.262Z,52.10
2017-07-31T21:23:01.806Z,52.20
2017-07-31T21:25:29.309Z,52.30
2017-07-31T21:27:56.810Z,52.30
2017-07-31T21:30:24.325Z,52.60
2017-07-31T21:32:51.835Z,52.80
2017-07-31T21:35:19.355Z,52.90
2017-07-31T21:37:47.639Z,53.10
2017-07-31T21:40:15.157Z,53.00
2017-07-31T21:42:42.666Z,53.20
2017-07-31T21:45:10.970Z,53.60
2017-07-31T21:47:38.466Z,53.60
2017-07-31T21:50:05.966Z,53.70
2017-07-31T21:52:33.502Z,53.80
2017-07-31T21:55:01.013Z,54.00
2017-07-31T21:57:28.534Z,54.30
2017-07-31T21:59:56.037Z,54.40
2017-07-31T22:02:23.554Z,54.50
2017-07-31T22:04:51.811Z,54.20
2017-07-31T22:07:20.111Z,54.20
2017-07-31T22:09:48.382Z,54.40
2017-07-31T22:12:16.678Z,54.40
2017-07-31T22:14:44.179Z,54.40
2017-07-31T22:17:30.447Z,54.70
2017-07-31T22:19:57.956Z,54.70
2017-07-31T22:22:25.482Z,54.80
2017-07-31T22:24:52.987Z,54.90
2017-07-31T22:27:21.250Z,55.30
2017-07-31T22:29:48.769Z,55.30
2017-07-31T22:32:16.274Z,55.30
2017-07-31T22:34:44.567Z,56.10
2017-07-31T22:37:12.072Z,55.50
2017-07-31T22:39:39.608Z,55.60
2017-07-31T22:42:07.121Z,55.50
2017-07-31T22:44:34.648Z,55.80
2017-07-31T22:47:02.147Z,55.80
2017-07-31T22:49:29.666Z,55.90
2017-07-31T22:51:57.169Z,56.10
2017-07-31T22:54:25.443Z,56.50
2017-07-31T22:56:52.957Z,56.40
2017-07-31T22:59:20.456Z,56.60
2017-07-31T23:01:48.032Z,56.60
2017-07-31T23:04:15.546Z,56.70
2017-07-31T23:06:43.062Z,57.00
2017-07-31T23:09:10.566Z,56.70
2017-07-31T23:11:38.081Z,56.80
2017-07-31T23:14:05.583Z,56.80
2017-07-31T23:16:33.122Z,56.80
2017-07-31T23:19:00.640Z,57.00
2017-07-31T23:21:28.151Z,57.30
2017-07-31T23:23:55.670Z,57.20
2017-07-31T23:26:23.182Z,57.30
2017-07-31T23:28:50.692Z,57.50
2017-07-31T23:31:18.211Z,57.60
2017-07-31T23:33:45.734Z,57.80
2017-07-31T23:36:13.235Z,57.50
2017-07-31T23:38:40.750Z,57.30
2017-07-31T23:41:08.258Z,57.40
2017-07-31T23:43:35.841Z,57.60
2017-07-31T23:46:03.421Z,57.50
2017-07-31T23:48:30.930Z,57.50
2017-07-31T23:50:58.443Z,57.30
2017-07-31T23:53:25.933Z,57.30
2017-07-31T23:55:53.443Z,57.40
2017-07-31T23:58:20.954Z,57.20
